Time;durP1;ratioP1;P1;durP2;ratioP2;P2;SDS_P1;SDS_P2;PMS_P1;PMS_P2;Temp;Humidity;BMP_temperature;BMP_pressure;BME280_temperature;BME280_humidity;BME280_pressure;Samples;Min_cycle;Max_cycle;Signal;HPM_P1;HPM_P2
2021/05/01 00:00:10;;;;;;;174.43;72.82;;;4.70;99.90;;;;;;4993169;28;20164;-89
2021/05/01 00:02:36;;;;;;;166.00;74.13;;;4.60;99.90;;;;;;4972140;28;20078;-90
2021/05/01 00:05:03;;;;;;;149.65;69.85;;;4.50;99.90;;;;;;4975463;28;20085;-90
2021/05/01 00:07:29;;;;;;;174.65;73.40;;;4.60;99.90;;;;;;4991419;28;20088;-88
2021/05/01 00:09:56;;;;;;;180.20;75.65;;;4.50;99.90;;;;;;4992097;28;20096;-91
2021/05/01 00:12:22;;;;;;;289.05;77.93;;;4.50;99.90;;;;;;4991986;28;20054;-90
2021/05/01 00:14:49;;;;;;;181.98;70.88;;;4.40;99.90;;;;;;4984604;28;20468;-90
2021/05/01 00:17:15;;;;;;;186.50;71.50;;;4.40;99.90;;;;;;4989622;28;20089;-90
2021/05/01 00:19:45;;;;;;;167.50;66.00;;;4.30;99.90;;;;;;4999323;28;20419;-89
2021/05/01 00:22:13;;;;;;;175.30;71.47;;;4.20;99.90;;;;;;4995607;28;20074;-89
2021/05/01 00:24:40;;;;;;;163.82;70.03;;;4.20;99.90;;;;;;4982050;28;20084;-89
2021/05/01 00:27:07;;;;;;;169.57;69.43;;;4.20;99.90;;;;;;4991840;28;20054;-90
2021/05/01 00:29:35;;;;;;;165.35;65.38;;;4.20;99.90;;;;;;4992684;28;20050;-89
2021/05/01 00:32:04;;;;;;;181.50;70.97;;;4.10;99.90;;;;;;4988233;28;20046;-89
2021/05/01 00:34:30;;;;;;;190.27;70.00;;;4.00;99.90;;;;;;4992994;28;20058;-89
2021/05/01 00:36:57;;;;;;;184.27;72.65;;;3.90;99.90;;;;;;4992837;28;20058;-89
2021/05/01 00:39:23;;;;;;;221.30;76.70;;;3.90;99.90;;;;;;4988730;28;20097;-90
2021/05/01 00:41:49;;;;;;;206.07;74.55;;;3.90;99.90;;;;;;4980630;28;21141;-90
2021/05/01 00:44:17;;;;;;;249.80;77.72;;;3.90;99.90;;;;;;5007496;28;20078;-90
2021/05/01 00:46:43;;;;;;;277.48;83.38;;;4.00;99.90;;;;;;5009837;28;20054;-89
2021/05/01 00:49:10;;;;;;;236.00;79.45;;;4.00;99.90;;;;;;5004971;28;20056;-88
2021/05/01 00:51:36;;;;;;;233.32;80.07;;;4.00;99.90;;;;;;5006324;28;20054;-89
2021/05/01 00:54:05;;;;;;;217.65;76.85;;;4.10;99.90;;;;;;5006820;28;20101;-89
2021/05/01 00:56:34;;;;;;;247.02;82.90;;;4.20;99.90;;;;;;5010937;28;20081;-90
2021/05/01 00:59:03;;;;;;;246.18;78.80;;;4.30;99.90;;;;;;5005229;28;20445;-89
2021/05/01 01:01:30;;;;;;;227.10;75.70;;;4.40;99.90;;;;;;5009687;28;20073;-90
2021/05/01 01:03:56;;;;;;;228.57;74.75;;;4.40;99.90;;;;;;4995423;28;20068;-90
2021/05/01 01:06:23;;;;;;;243.73;80.53;;;4.50;99.90;;;;;;5012540;28;20132;-88
2021/05/01 01:08:49;;;;;;;220.35;74.32;;;4.50;99.90;;;;;;4992135;28;20148;-90
2021/05/01 01:11:16;;;;;;;221.93;76.05;;;4.50;99.90;;;;;;5006933;28;20109;-90
2021/05/01 01:14:06;;;;;;;239.32;74.80;;;4.50;99.90;;;;;;5012448;28;20046;-90
2021/05/01 01:16:34;;;;;;;213.95;72.95;;;4.60;99.90;;;;;;5015437;28;20121;-90
2021/05/01 01:19:01;;;;;;;225.15;71.70;;;4.70;99.90;;;;;;5013458;28;20436;-89
2021/05/01 01:21:30;;;;;;;209.45;70.93;;;4.70;99.90;;;;;;5010487;28;20321;-89
2021/05/01 01:23:56;;;;;;;229.73;74.97;;;4.70;99.90;;;;;;5008716;28;20100;-90
2021/05/01 01:26:23;;;;;;;225.65;75.43;;;4.60;99.90;;;;;;5011427;28;20070;-88
2021/05/01 01:28:49;;;;;;;220.85;71.57;;;4.60;99.90;;;;;;5014523;28;20157;-90
2021/05/01 01:31:16;;;;;;;199.00;69.72;;;4.60;99.90;;;;;;5014999;28;20135;-91
2021/05/01 01:33:43;;;;;;;256.35;79.28;;;4.70;99.90;;;;;;5012684;28;20053;-89
2021/05/01 01:36:09;;;;;;;222.65;75.15;;;4.70;99.90;;;;;;5004672;28;20049;-90
2021/05/01 01:38:35;;;;;;;245.13;77.65;;;4.70;99.90;;;;;;5028326;28;20148;-91
2021/05/01 01:41:05;;;;;;;245.80;81.20;;;4.70;99.90;;;;;;5029798;28;20069;-91
2021/05/01 01:43:31;;;;;;;266.38;83.10;;;4.80;99.90;;;;;;5020121;28;20039;-84
2021/05/01 01:46:00;;;;;;;265.63;81.88;;;4.80;99.90;;;;;;5056131;28;20041;-91
2021/05/01 01:48:27;;;;;;;257.98;78.40;;;4.70;99.90;;;;;;5035120;28;20050;-90
2021/05/01 01:50:53;;;;;;;245.68;77.97;;;4.80;99.90;;;;;;5046977;28;20057;-89
2021/05/01 01:53:20;;;;;;;254.23;78.90;;;4.70;99.90;;;;;;5024619;28;20084;-90
2021/05/01 01:55:46;;;;;;;236.20;73.93;;;4.70;99.90;;;;;;5003587;28;20113;-91
2021/05/01 01:58:15;;;;;;;243.10;78.47;;;4.70;99.90;;;;;;5036216;28;20081;-91
2021/05/01 02:00:41;;;;;;;213.35;72.97;;;4.70;99.90;;;;;;5005240;28;20344;-90
2021/05/01 02:03:08;;;;;;;245.82;79.55;;;4.70;99.90;;;;;;5018279;28;20088;-90
2021/05/01 02:05:34;;;;;;;251.00;80.82;;;4.70;99.90;;;;;;5029656;28;20049;-88
2021/05/01 02:08:01;;;;;;;283.60;86.47;;;4.80;99.90;;;;;;5017529;28;20125;-90
2021/05/01 02:10:27;;;;;;;240.30;79.70;;;4.80;99.90;;;;;;5033592;28;20549;-90
2021/05/01 02:12:53;;;;;;;259.38;79.22;;;4.80;99.90;;;;;;5000392;28;20495;-90
2021/05/01 02:15:22;;;;;;;270.75;82.07;;;4.80;99.90;;;;;;5024046;28;20084;-91
2021/05/01 02:17:51;;;;;;;260.02;81.57;;;4.80;99.90;;;;;;5010331;28;20364;-90
2021/05/01 02:20:21;;;;;;;271.50;80.60;;;4.80;99.90;;;;;;5025666;28;20375;-91
2021/05/01 02:22:48;;;;;;;270.05;79.57;;;4.90;99.90;;;;;;5009813;28;20141;-88
2021/05/01 02:25:14;;;;;;;293.63;80.00;;;4.90;99.90;;;;;;5016162;28;20049;-91
2021/05/01 02:27:44;;;;;;;275.50;81.72;;;4.80;99.90;;;;;;5009419;28;20128;-90
2021/05/01 02:30:16;;;;;;;250.02;77.28;;;4.80;99.90;;;;;;5017464;28;20137;-89
2021/05/01 02:32:42;;;;;;;270.85;77.53;;;4.80;99.90;;;;;;5012304;28;20200;-90
2021/05/01 02:35:14;;;;;;;288.67;80.10;;;4.80;99.90;;;;;;4993476;28;20049;-89
2021/05/01 02:37:42;;;;;;;260.27;78.93;;;4.80;99.90;;;;;;5030344;28;20073;-92
2021/05/01 02:40:11;;;;;;;232.25;77.22;;;4.80;99.90;;;;;;5032036;28;20417;-91
2021/05/01 02:42:38;;;;;;;303.13;82.97;;;4.80;99.90;;;;;;5017315;28;20100;-91
2021/05/01 02:45:07;;;;;;;288.45;80.05;;;4.90;99.90;;;;;;5030815;28;20084;-91
2021/05/01 02:47:34;;;;;;;257.73;74.68;;;4.90;99.90;;;;;;5011652;28;20712;-90
2021/05/01 02:50:01;;;;;;;239.68;76.75;;;4.90;99.90;;;;;;5011036;28;20475;-91
2021/05/01 02:52:28;;;;;;;219.73;73.18;;;4.80;99.90;;;;;;5027176;28;20046;-91
2021/05/01 02:54:54;;;;;;;243.93;76.22;;;4.80;99.90;;;;;;4985120;28;20062;-91
2021/05/01 02:57:21;;;;;;;226.05;74.10;;;4.80;99.90;;;;;;5011798;28;20099;-90
2021/05/01 02:59:47;;;;;;;224.55;73.45;;;4.80;99.90;;;;;;5010286;28;20510;-91
2021/05/01 03:02:13;;;;;;;230.98;74.32;;;4.90;99.90;;;;;;5004597;28;20137;-90
2021/05/01 03:04:40;;;;;;;258.20;76.32;;;4.90;99.90;;;;;;5035554;28;20125;-89
2021/05/01 03:07:06;;;;;;;259.02;77.28;;;4.80;99.90;;;;;;5035106;28;20092;-89
2021/05/01 03:09:33;;;;;;;288.20;81.00;;;4.80;99.90;;;;;;4997508;28;20046;-90
2021/05/01 03:12:00;;;;;;;286.83;83.85;;;4.80;99.90;;;;;;5010294;28;20050;-89
2021/05/01 03:14:28;;;;;;;272.25;84.53;;;4.80;99.90;;;;;;5016983;28;20439;-91
2021/05/01 03:16:55;;;;;;;281.48;87.00;;;4.80;99.90;;;;;;5030629;28;20406;-88
2021/05/01 03:19:23;;;;;;;304.10;88.10;;;4.70;99.90;;;;;;5014503;28;20041;-90
2021/05/01 03:21:50;;;;;;;282.13;85.82;;;4.70;99.90;;;;;;5028393;28;20111;-86
2021/05/01 03:24:16;;;;;;;272.58;84.97;;;4.70;99.90;;;;;;5000481;28;20072;-91
2021/05/01 03:26:43;;;;;;;266.48;83.03;;;4.70;99.90;;;;;;5020372;28;20107;-90
2021/05/01 03:29:09;;;;;;;266.58;85.30;;;4.70;99.90;;;;;;5017274;28;20084;-90
2021/05/01 03:31:37;;;;;;;284.90;83.97;;;4.70;99.90;;;;;;4997693;28;20058;-88
2021/05/01 03:34:04;;;;;;;262.40;82.68;;;4.70;99.90;;;;;;4992501;28;20064;-90
2021/05/01 03:36:31;;;;;;;272.83;82.43;;;4.70;99.90;;;;;;5002989;28;20088;-87
2021/05/01 03:38:59;;;;;;;276.42;83.15;;;4.70;99.90;;;;;;5032897;28;20053;-90
2021/05/01 03:41:26;;;;;;;276.98;82.05;;;4.70;99.90;;;;;;5031473;28;20045;-90
2021/05/01 03:43:53;;;;;;;272.60;82.45;;;4.70;99.90;;;;;;5012694;28;20075;-90
2021/05/01 03:46:19;;;;;;;286.80;83.40;;;4.70;99.90;;;;;;5038175;28;20498;-90
2021/05/01 03:48:46;;;;;;;277.02;82.65;;;4.70;99.90;;;;;;5021740;28;20148;-90
2021/05/01 03:51:12;;;;;;;270.80;81.78;;;4.70;99.90;;;;;;5009075;28;20212;-89
2021/05/01 03:53:38;;;;;;;260.85;80.85;;;4.70;99.90;;;;;;5021743;28;20144;-90
2021/05/01 03:56:05;;;;;;;382.10;82.78;;;4.70;99.90;;;;;;5019876;28;20049;-89
2021/05/01 03:58:32;;;;;;;302.85;83.25;;;4.70;99.90;;;;;;5011573;28;20746;-90
2021/05/01 04:00:59;;;;;;;356.77;83.63;;;4.70;99.90;;;;;;5033143;28;20117;-91
2021/05/01 04:03:25;;;;;;;275.52;80.85;;;4.70;99.90;;;;;;4996788;28;20056;-89
2021/05/01 04:05:52;;;;;;;304.48;85.82;;;4.70;99.90;;;;;;5017794;28;20133;-90
2021/05/01 04:08:19;;;;;;;277.05;82.88;;;4.70;99.90;;;;;;5003155;28;20056;-91
2021/05/01 04:10:45;;;;;;;246.07;78.10;;;4.70;99.90;;;;;;5009984;28;20148;-91
2021/05/01 04:13:12;;;;;;;280.10;81.13;;;4.70;99.90;;;;;;5010069;28;20739;-90
2021/05/01 04:15:38;;;;;;;277.98;79.00;;;4.80;99.90;;;;;;5014825;28;20128;-90
2021/05/01 04:18:04;;;;;;;241.32;76.32;;;4.80;99.90;;;;;;5015849;28;20084;-89
2021/05/01 04:20:31;;;;;;;238.75;74.38;;;4.70;99.90;;;;;;4982240;28;20077;-89
2021/05/01 04:22:57;;;;;;;250.15;75.55;;;4.80;99.90;;;;;;5031652;28;20065;-89
2021/05/01 04:25:24;;;;;;;271.73;80.60;;;4.90;99.90;;;;;;5021517;28;20046;-89
2021/05/01 04:27:50;;;;;;;242.30;74.80;;;4.80;99.90;;;;;;5011117;28;20539;-86
2021/05/01 04:30:19;;;;;;;205.95;72.57;;;4.90;99.90;;;;;;5013269;28;20050;-90
2021/05/01 04:32:46;;;;;;;215.68;71.20;;;4.90;99.90;;;;;;4996277;28;20141;-91
2021/05/01 04:35:13;;;;;;;175.77;62.63;;;5.00;99.90;;;;;;4997785;28;20494;-90
2021/05/01 04:37:39;;;;;;;191.40;68.32;;;5.10;99.90;;;;;;5015196;28;20112;-89
2021/05/01 04:40:08;;;;;;;191.30;67.72;;;5.00;99.90;;;;;;5023826;28;20128;-90
2021/05/01 04:42:41;;;;;;;164.52;62.90;;;5.00;99.90;;;;;;5013460;28;20136;-89
2021/05/01 04:45:10;;;;;;;213.48;69.47;;;5.00;99.90;;;;;;5033362;28;20076;-88
2021/05/01 04:47:37;;;;;;;206.00;72.95;;;5.00;99.90;;;;;;5034965;28;20332;-88
2021/05/01 04:50:04;;;;;;;225.32;73.60;;;5.00;99.90;;;;;;5015791;28;20111;-89
2021/05/01 04:52:31;;;;;;;218.88;73.57;;;5.00;99.90;;;;;;5016569;28;20420;-89
2021/05/01 04:55:01;;;;;;;206.88;71.50;;;5.10;99.90;;;;;;5014883;28;20426;-90
2021/05/01 04:57:27;;;;;;;227.25;78.15;;;5.10;99.90;;;;;;5016973;28;20042;-90
2021/05/01 04:59:53;;;;;;;219.38;75.20;;;5.10;99.90;;;;;;5030636;28;20679;-90
2021/05/01 05:02:22;;;;;;;207.63;73.60;;;5.20;99.90;;;;;;5008714;28;20073;-90
2021/05/01 05:04:49;;;;;;;199.85;72.47;;;5.20;99.90;;;;;;5018780;28;20056;-89
2021/05/01 05:07:16;;;;;;;169.63;66.85;;;5.20;99.90;;;;;;5033150;28;20087;-88
2021/05/01 05:09:45;;;;;;;183.35;68.65;;;5.20;99.90;;;;;;5017474;28;20128;-87
2021/05/01 05:12:11;;;;;;;168.07;68.70;;;5.20;99.90;;;;;;5017742;28;20069;-88
2021/05/01 05:14:37;;;;;;;173.38;69.38;;;5.20;99.90;;;;;;5014898;28;20083;-88
2021/05/01 05:17:08;;;;;;;161.57;69.03;;;5.20;99.90;;;;;;5015156;28;20331;-89
2021/05/01 05:19:36;;;;;;;154.30;63.65;;;5.20;99.90;;;;;;5011906;28;20046;-90
2021/05/01 05:22:02;;;;;;;147.07;62.65;;;5.20;99.90;;;;;;5016997;28;20347;-89
2021/05/01 05:24:29;;;;;;;138.05;61.15;;;5.20;99.90;;;;;;5013726;28;20115;-88
2021/05/01 05:26:55;;;;;;;132.75;59.72;;;5.20;99.90;;;;;;5014019;28;20050;-84
2021/05/01 05:29:22;;;;;;;128.85;60.17;;;5.20;99.90;;;;;;5025012;28;20073;-82
2021/05/01 05:31:51;;;;;;;129.25;58.45;;;5.30;99.90;;;;;;5016863;28;20077;-82
2021/05/01 05:34:17;;;;;;;130.15;61.42;;;5.40;99.90;;;;;;4992013;28;20045;-82
2021/05/01 05:36:43;;;;;;;120.70;58.85;;;5.40;99.90;;;;;;5033723;28;20079;-82
2021/05/01 05:39:10;;;;;;;124.80;59.03;;;5.50;99.90;;;;;;5032422;28;20055;-83
2021/05/01 05:41:36;;;;;;;131.82;60.15;;;5.50;99.90;;;;;;5032881;28;20132;-83
2021/05/01 05:44:04;;;;;;;118.97;56.90;;;5.50;99.90;;;;;;5029569;28;20077;-84
2021/05/01 05:46:30;;;;;;;112.20;56.67;;;5.60;99.90;;;;;;5031533;28;20132;-80
2021/05/01 05:48:57;;;;;;;98.60;52.40;;;5.50;99.90;;;;;;5014600;28;20128;-81
2021/05/01 05:51:23;;;;;;;99.63;52.58;;;5.50;99.90;;;;;;5019606;28;20077;-82
2021/05/01 05:53:49;;;;;;;99.10;52.03;;;5.60;99.90;;;;;;5039875;28;20064;-82
2021/05/01 05:56:16;;;;;;;99.93;51.55;;;5.60;99.90;;;;;;5034478;28;20455;-83
2021/05/01 05:58:43;;;;;;;97.78;51.17;;;5.70;99.90;;;;;;5010273;28;20117;-82
2021/05/01 06:01:11;;;;;;;98.32;52.45;;;5.70;99.90;;;;;;5048161;28;20111;-82
2021/05/01 06:03:39;;;;;;;102.63;54.05;;;5.80;99.90;;;;;;5049536;28;20045;-84
2021/05/01 06:06:15;;;;;;;94.05;51.35;;;5.90;99.90;;;;;;5031889;28;20049;-84
2021/05/01 06:08:43;;;;;;;96.38;52.15;;;6.00;99.90;;;;;;5013732;28;20062;-84
2021/05/01 06:11:11;;;;;;;90.85;50.03;;;5.90;99.90;;;;;;5025595;28;20077;-86
2021/05/01 06:13:38;;;;;;;87.32;49.55;;;6.10;99.90;;;;;;5018840;28;20085;-86
2021/05/01 06:16:05;;;;;;;85.18;48.75;;;6.20;99.90;;;;;;5012425;28;20413;-88
2021/05/01 06:18:38;;;;;;;88.40;50.40;;;6.30;99.90;;;;;;5016644;28;20084;-86
2021/05/01 06:21:22;;;;;;;88.45;50.58;;;6.30;99.90;;;;;;5031405;28;20077;-87
2021/05/01 06:23:54;;;;;;;64.85;41.55;;;6.40;99.90;;;;;;5017343;28;20168;-87
2021/05/01 06:26:21;;;;;;;65.80;39.15;;;6.50;99.90;;;;;;5015541;28;20121;-89
2021/05/01 06:28:50;;;;;;;64.32;40.60;;;6.50;99.90;;;;;;5016065;28;20049;-88
2021/05/01 06:31:18;;;;;;;69.32;43.92;;;6.50;99.90;;;;;;4993690;28;20140;-89
2021/05/01 06:33:46;;;;;;;64.28;41.63;;;6.40;99.90;;;;;;5033275;28;20407;-89
2021/05/01 06:36:13;;;;;;;63.83;40.58;;;6.30;99.90;;;;;;5014201;28;20132;-88
2021/05/01 06:38:40;;;;;;;60.72;38.50;;;6.40;99.90;;;;;;5015584;28;20073;-88
2021/05/01 06:41:09;;;;;;;59.95;38.63;;;6.40;99.90;;;;;;5013280;28;20050;-87
2021/05/01 06:43:58;;;;;;;59.67;38.20;;;6.40;99.90;;;;;;5032625;28;20387;-88
2021/05/01 06:46:27;;;;;;;62.03;40.33;;;6.40;99.90;;;;;;5026196;28;20084;-87
2021/05/01 06:48:56;;;;;;;59.58;39.08;;;6.30;99.90;;;;;;5014604;28;20076;-89
2021/05/01 06:51:23;;;;;;;58.80;37.13;;;6.30;99.90;;;;;;5036749;28;20054;-86
2021/05/01 06:53:49;;;;;;;52.05;34.20;;;6.40;99.90;;;;;;5024214;28;20084;-87
2021/05/01 06:56:17;;;;;;;53.28;35.10;;;6.40;99.90;;;;;;5012718;28;20126;-86
2021/05/01 06:58:45;;;;;;;53.95;34.53;;;6.50;99.90;;;;;;5009215;28;20111;-89
2021/05/01 07:01:13;;;;;;;52.60;34.13;;;6.40;99.90;;;;;;5014549;28;20127;-87
2021/05/01 07:03:41;;;;;;;58.72;38.78;;;6.50;99.90;;;;;;5012901;28;20093;-88
2021/05/01 07:06:08;;;;;;;57.83;38.75;;;6.60;99.90;;;;;;5007518;28;20076;-89
2021/05/01 07:08:35;;;;;;;55.75;36.15;;;6.70;99.90;;;;;;5017561;28;20084;-88
2021/05/01 07:11:09;;;;;;;49.78;33.55;;;6.80;99.90;;;;;;5018651;28;20112;-89
2021/05/01 07:13:35;;;;;;;56.20;35.78;;;6.80;99.90;;;;;;5017522;28;20419;-87
2021/05/01 07:16:03;;;;;;;50.88;34.50;;;6.80;99.90;;;;;;5015238;28;20049;-91
2021/05/01 07:18:33;;;;;;;58.05;36.55;;;6.80;99.90;;;;;;5031052;28;20049;-87
2021/05/01 07:21:00;;;;;;;53.33;34.78;;;6.80;99.90;;;;;;4994299;28;20056;-89
2021/05/01 07:23:26;;;;;;;57.45;37.33;;;6.60;99.90;;;;;;5015690;28;20049;-91
2021/05/01 07:25:53;;;;;;;64.03;38.40;;;6.50;99.90;;;;;;5002053;28;20632;-91
2021/05/01 07:28:26;;;;;;;60.78;39.20;;;6.40;99.90;;;;;;4998410;28;20073;-89
2021/05/01 07:30:53;;;;;;;;;;;6.50;99.90;;;;;;5011993;28;20558;-92
2021/05/01 07:33:20;;;;;;;60.75;37.67;;;6.50;99.90;;;;;;5003141;28;20382;-88
2021/05/01 07:35:50;;;;;;;62.58;37.88;;;6.60;99.90;;;;;;5011436;28;20470;-88
2021/05/01 07:38:17;;;;;;;58.67;36.58;;;6.80;99.90;;;;;;5008279;28;20651;-88
2021/05/01 07:40:44;;;;;;;53.22;35.88;;;6.80;99.90;;;;;;5025115;28;20042;-87
2021/05/01 07:43:16;;;;;;;49.78;34.70;;;6.90;99.90;;;;;;5029261;28;20045;-88
2021/05/01 07:45:44;;;;;;;52.90;34.42;;;6.90;99.90;;;;;;5021619;28;20099;-88
2021/05/01 07:48:13;;;;;;;54.80;35.13;;;6.90;99.90;;;;;;5026027;28;20446;-87
2021/05/01 07:50:40;;;;;;;52.50;34.72;;;6.90;99.90;;;;;;5012087;28;20355;-88
2021/05/01 07:53:07;;;;;;;55.80;35.90;;;6.90;99.90;;;;;;5007404;28;20171;-87
2021/05/01 07:55:40;;;;;;;59.17;36.35;;;6.80;99.90;;;;;;5028556;28;20149;-88
2021/05/01 07:58:07;;;;;;;51.67;33.53;;;6.80;99.90;;;;;;5030339;28;20064;-88
2021/05/01 08:00:34;;;;;;;55.00;36.03;;;6.80;99.90;;;;;;5026363;28;20042;-89
2021/05/01 08:03:02;;;;;;;59.15;36.35;;;6.80;99.90;;;;;;5014721;28;20470;-85
2021/05/01 08:05:31;;;;;;;49.85;33.72;;;6.90;99.90;;;;;;5029318;28;20426;-87
2021/05/01 08:07:59;;;;;;;53.72;35.10;;;6.90;99.90;;;;;;4995393;28;20064;-87
2021/05/01 08:10:26;;;;;;;49.92;33.83;;;6.90;99.90;;;;;;5013593;28;20056;-87
2021/05/01 08:12:53;;;;;;;55.22;35.17;;;6.90;99.90;;;;;;5031055;28;20192;-87
2021/05/01 08:15:19;;;;;;;57.40;37.15;;;6.80;99.90;;;;;;5029507;28;20104;-87
2021/05/01 08:17:45;;;;;;;60.60;37.28;;;6.80;99.90;;;;;;5029769;28;20045;-89
2021/05/01 08:20:14;;;;;;;53.80;34.50;;;6.80;99.90;;;;;;5010238;28;20490;-88
2021/05/01 08:22:44;;;;;;;60.33;38.88;;;6.70;99.90;;;;;;5031514;28;20049;-88
2021/05/01 08:25:13;;;;;;;61.20;38.22;;;6.80;99.90;;;;;;5033378;28;20087;-88
2021/05/01 08:27:40;;;;;;;64.35;40.22;;;6.70;99.90;;;;;;5033710;28;20049;-88
2021/05/01 08:30:09;;;;;;;69.57;41.88;;;6.80;99.90;;;;;;5015595;28;20459;-89
2021/05/01 08:32:36;;;;;;;71.97;43.25;;;6.70;99.90;;;;;;5014304;28;20053;-88
2021/05/01 08:35:03;;;;;;;65.38;41.22;;;6.80;99.90;;;;;;5032432;28;20053;-89
2021/05/01 08:37:32;;;;;;;69.38;42.25;;;6.90;99.90;;;;;;5023493;28;21012;-85
2021/05/01 08:39:59;;;;;;;67.63;41.00;;;6.90;99.90;;;;;;5012884;28;20045;-85
2021/05/01 08:42:26;;;;;;;68.78;40.75;;;6.90;99.90;;;;;;5011888;28;20084;-86
2021/05/01 08:44:56;;;;;;;70.07;42.40;;;6.90;99.90;;;;;;5012806;28;20075;-83
2021/05/01 08:47:23;;;;;;;72.78;42.38;;;7.00;99.90;;;;;;4994509;28;20105;-86
2021/05/01 08:49:49;;;;;;;72.70;44.53;;;7.00;99.90;;;;;;4993278;28;20045;-87
2021/05/01 08:52:16;;;;;;;76.57;46.42;;;7.10;99.90;;;;;;5030237;28;20095;-85
2021/05/01 08:54:42;;;;;;;73.25;43.47;;;7.20;99.90;;;;;;5013370;28;20132;-86
2021/05/01 08:57:26;;;;;;;66.75;42.67;;;7.30;99.90;;;;;;4992394;28;20095;-87
2021/05/01 08:59:53;;;;;;;66.93;42.53;;;7.60;99.90;;;;;;5017388;28;20113;-91
2021/05/01 09:02:23;;;;;;;61.88;40.28;;;7.60;99.90;;;;;;5011845;28;20107;-91
2021/05/01 09:04:50;;;;;;;56.22;38.05;;;7.60;99.90;;;;;;5015359;28;20133;-90
2021/05/01 09:07:17;;;;;;;58.17;39.72;;;7.70;99.90;;;;;;5009015;28;20092;-88
2021/05/01 09:09:55;;;;;;;58.45;38.75;;;7.80;99.90;;;;;;5032071;28;20062;-89
2021/05/01 09:12:39;;;;;;;54.40;37.35;;;7.90;99.90;;;;;;5015308;28;20049;-88
2021/05/01 09:15:09;;;;;;;52.55;34.90;;;8.00;99.90;;;;;;5006409;28;20057;-89
2021/05/01 09:17:39;;;;;;;54.80;36.17;;;7.90;99.90;;;;;;5027223;28;20473;-86
2021/05/01 09:20:12;;;;;;;58.20;37.78;;;7.80;99.90;;;;;;5012879;28;20364;-88
2021/05/01 09:23:10;;;;;;;61.67;40.90;;;7.60;99.90;;;;;;5012832;28;20073;-86
2021/05/01 09:25:54;;;;;;;58.38;38.67;;;7.50;99.90;;;;;;4969157;28;20517;-88
2021/05/01 09:28:22;;;;;;;62.53;38.75;;;7.40;99.90;;;;;;5021677;28;20053;-87
2021/05/01 09:31:06;;;;;;;53.55;35.60;;;7.50;99.90;;;;;;5016810;28;20100;-87
2021/05/01 09:33:35;;;;;;;55.80;37.05;;;7.50;99.90;;;;;;5015928;28;20124;-88
2021/05/01 09:36:08;;;;;;;56.50;36.40;;;7.50;99.90;;;;;;5009255;28;20065;-87
2021/05/01 09:38:46;;;;;;;52.92;36.25;;;7.60;99.90;;;;;;5007853;28;20068;-87
2021/05/01 09:41:24;;;;;;;51.45;33.72;;;7.60;99.90;;;;;;5005618;28;20069;-86
2021/05/01 09:44:19;;;;;;;53.88;35.00;;;7.70;99.90;;;;;;5033321;28;20505;-87
2021/05/01 09:46:54;;;;;;;52.40;34.70;;;7.70;99.90;;;;;;5026217;28;20088;-85
2021/05/01 09:49:31;;;;;;;50.50;34.03;;;7.80;99.90;;;;;;4999124;28;20053;-86
2021/05/01 09:51:59;;;;;;;53.58;34.90;;;8.10;99.90;;;;;;5016295;28;20162;-87
2021/05/01 09:54:38;;;;;;;48.22;30.20;;;8.40;99.90;;;;;;5031898;28;20096;-86
2021/05/01 09:57:16;;;;;;;44.72;30.92;;;8.70;99.90;;;;;;5021525;28;20077;-87
2021/05/01 09:59:56;;;;;;;41.25;28.10;;;9.20;99.90;;;;;;4997455;28;20046;-87
2021/05/01 10:02:34;;;;;;;38.53;27.92;;;9.40;99.90;;;;;;5013288;28;20299;-87
2021/05/01 10:05:11;;;;;;;37.38;26.77;;;9.50;99.90;;;;;;5011465;28;20049;-85
2021/05/01 10:07:41;;;;;;;37.45;26.10;;;9.70;99.90;;;;;;5027090;28;20096;-88
2021/05/01 10:10:08;;;;;;;38.30;28.27;;;9.80;99.90;;;;;;5030224;28;20057;-87
2021/05/01 10:12:37;;;;;;;38.95;28.00;;;9.80;99.90;;;;;;5028771;28;20068;-86
2021/05/01 10:15:20;;;;;;;37.85;27.40;;;9.60;99.90;;;;;;5038758;28;20069;-88
2021/05/01 10:17:49;;;;;;;34.17;26.73;;;9.50;99.90;;;;;;5019873;28;20069;-87
2021/05/01 10:20:18;;;;;;;33.58;25.35;;;9.60;99.90;;;;;;5026203;28;20042;-89
2021/05/01 10:22:51;;;;;;;35.08;25.30;;;9.70;99.90;;;;;;5041216;28;20451;-90
2021/05/01 10:25:18;;;;;;;33.60;25.05;;;10.00;99.90;;;;;;5019807;28;20052;-90
2021/05/01 10:27:57;;;;;;;34.67;24.17;;;10.40;99.90;;;;;;5014156;28;20133;-89
2021/05/01 10:30:37;;;;;;;28.70;20.90;;;10.70;99.90;;;;;;5003370;28;20045;-90
2021/05/01 10:35:53;;;;;;;24.85;19.13;;;10.70;99.90;;;;;;5021457;28;20050;-89
2021/05/01 10:38:22;;;;;;;25.60;19.15;;;10.80;99.90;;;;;;5011508;28;20080;-88
2021/05/01 10:41:00;;;;;;;25.58;18.95;;;10.90;99.90;;;;;;5006452;28;20045;-89
2021/05/01 10:43:37;;;;;;;24.10;19.20;;;10.70;99.90;;;;;;5005937;28;20045;-88
2021/05/01 10:46:19;;;;;;;24.52;18.95;;;10.70;99.90;;;;;;5013067;28;20433;-89
2021/05/01 10:48:47;;;;;;;24.90;19.20;;;10.60;99.90;;;;;;5031381;28;20454;-88
2021/05/01 10:51:19;;;;;;;23.80;18.13;;;10.50;99.90;;;;;;5013835;28;20129;-87
2021/05/01 10:53:48;;;;;;;26.10;19.42;;;10.40;99.90;;;;;;5022878;28;20125;-89
2021/05/01 10:56:26;;;;;;;23.90;18.95;;;10.40;99.90;;;;;;5013921;28;20127;-89
2021/05/01 10:58:54;;;;;;;24.92;18.83;;;10.20;99.90;;;;;;5027499;28;20524;-89
2021/05/01 11:01:32;;;;;;;;;;;10.10;99.90;;;;;;5010542;28;20046;-88
2021/05/01 11:04:01;;;;;;;26.92;20.17;;;10.20;99.90;;;;;;5008219;28;19939;-88
2021/05/01 11:06:31;;;;;;;26.95;20.88;;;10.50;99.90;;;;;;5014283;28;20128;-90
2021/05/01 11:09:09;;;;;;;28.48;20.15;;;10.70;99.90;;;;;;5012256;28;20099;-91
2021/05/01 11:11:38;;;;;;;24.33;19.65;;;10.80;99.90;;;;;;5008544;28;20061;-87
2021/05/01 11:14:27;;;;;;;29.45;22.13;;;10.80;99.90;;;;;;5025752;28;20188;-91
2021/05/01 11:17:22;;;;;;;29.05;21.60;;;10.70;99.90;;;;;;5013652;28;20052;-90
2021/05/01 11:19:51;;;;;;;29.05;21.45;;;10.70;99.90;;;;;;5034251;28;20129;-90
2021/05/01 11:22:27;;;;;;;29.45;21.80;;;10.50;99.90;;;;;;5011833;28;20064;-89
2021/05/01 11:24:56;;;;;;;30.88;22.83;;;10.50;99.90;;;;;;5012683;28;20098;-90
2021/05/01 11:27:25;;;;;;;29.70;23.10;;;10.50;99.90;;;;;;5032266;28;20418;-90
2021/05/01 11:29:53;;;;;;;29.55;21.85;;;10.50;99.90;;;;;;5013530;28;20128;-88
2021/05/01 11:32:23;;;;;;;28.30;22.23;;;10.50;99.90;;;;;;5013207;28;20141;-88
2021/05/01 11:35:05;;;;;;;29.23;21.85;;;10.70;99.90;;;;;;5016958;28;20164;-88
2021/05/01 11:37:51;;;;;;;31.55;23.65;;;10.70;99.90;;;;;;5016222;28;20178;-91
2021/05/01 11:40:23;;;;;;;32.88;23.65;;;10.90;99.90;;;;;;5010608;28;20041;-90
2021/05/01 11:42:51;;;;;;;33.10;25.23;;;11.30;99.90;;;;;;5009410;28;20055;-89
2021/05/01 11:45:19;;;;;;;31.60;21.75;;;11.50;99.90;;;;;;5008014;28;20119;-90
2021/05/01 11:47:51;;;;;;;29.38;23.45;;;11.40;99.90;;;;;;5010545;28;20042;-89
2021/05/01 11:50:19;;;;;;;29.90;22.73;;;11.40;99.90;;;;;;5007698;28;20124;-90
2021/05/01 11:53:06;;;;;;;32.00;24.10;;;11.30;99.90;;;;;;5009270;28;20054;-91
2021/05/01 11:55:49;;;;;;;32.90;23.60;;;11.30;99.90;;;;;;4999777;28;20074;-90
2021/05/01 11:58:34;;;;;;;;;;;11.30;99.90;;;;;;4993433;28;20062;-90
2021/05/01 12:01:21;;;;;;;28.70;22.15;;;11.20;99.90;;;;;;4986873;28;19975;-90
2021/05/01 12:04:01;;;;;;;35.80;26.27;;;11.60;99.90;;;;;;5010916;28;20432;-91
2021/05/01 12:06:36;;;;;;;35.05;24.45;;;11.60;99.90;;;;;;5009516;28;20355;-88
2021/05/01 12:09:11;;;;;;;31.13;24.40;;;11.60;99.90;;;;;;5010380;28;20062;-87
2021/05/01 12:11:44;;;;;;;33.13;23.45;;;11.70;99.90;;;;;;5003755;28;20049;-87
2021/05/01 12:14:12;;;;;;;31.13;23.83;;;11.60;99.90;;;;;;5011191;28;20101;-88
2021/05/01 12:16:41;;;;;;;34.78;23.50;;;11.70;99.90;;;;;;5008843;28;20064;-89
2021/05/01 12:19:26;;;;;;;31.90;24.20;;;11.60;99.90;;;;;;5003934;28;20067;-87
2021/05/01 12:21:53;;;;;;;32.47;23.95;;;11.50;99.90;;;;;;4964483;28;20673;-87
2021/05/01 12:24:31;;;;;;;37.90;23.40;;;11.80;99.90;;;;;;5002031;28;20076;-89
2021/05/01 12:26:58;;;;;;;29.42;23.17;;;12.00;99.90;;;;;;4986440;28;20050;-88
2021/05/01 12:29:29;;;;;;;29.88;22.65;;;12.10;99.90;;;;;;5009948;28;20060;-90
2021/05/01 12:31:56;;;;;;;28.35;23.35;;;12.20;99.90;;;;;;5009396;28;20057;-89
2021/05/01 12:34:52;;;;;;;30.30;23.10;;;12.40;99.90;;;;;;5007726;28;20054;-88
2021/05/01 12:37:21;;;;;;;33.13;25.08;;;12.30;99.90;;;;;;5006785;28;20050;-90
2021/05/01 12:39:48;;;;;;;31.52;24.92;;;11.70;99.90;;;;;;4974932;28;20082;-89
2021/05/01 12:42:20;;;;;;;35.28;26.27;;;11.60;99.90;;;;;;5007723;28;20390;-88
2021/05/01 12:44:48;;;;;;;34.75;27.00;;;11.50;99.90;;;;;;5012342;28;20081;-88